DIRECCIÓN GENERAL DE AERONÁUTICA CIVIL
DIRECCIÓN METEOROLÓGICA DE CHILE
INFORMACIÓN METAR Y TAF

FIR SANTIAGO

Estación: SCSE
METAR SCSE 252000Z 31010KT 9999 FEW020 17/13 Q1022=

TAF COR SCSE 251716Z 2518/2618 29005KT 9999 SCT020 TX18/2518Z TN08/ 2610Z TEMPO 2518/2522 VRB02KT CAVOK BECMG 2522/2524 VRB02KT FEW010 BECMG 2600/2602 11005KT SCT012 TEMPO 2606/2610 14005KT CAVOK BECMG 2615/2617 25005KT FEW012=

Estación: SCER
METAR SCER 161100Z 00000KT 7000 OVC014 12/10 Q1015=

TAF SCER NIL=

Estación: SCRD
METAR SCRD 252000Z 18003KT 9999 FEW010 BKN020 13/08 Q1026=

TAF AMD SCRD 251549Z 2516/2524 18005KT 9999 SCT010 BKN015 TX13/2518Z TN10/2512Z BECMG 2518/2519 33010KT 8000 BKN020 BKN050=

Estación: SCVM
METAR SCVM 252000Z 26007KT 9999 FEW022 SCT070 15/10 Q1026=

TAF COR SCVM 251717Z 2518/2618 22008KT 9999 FEW020 SCT070 TX16/2518Z TN07/2610Z BECMG 2522/2524 00000KT BECMG 2604/2606 14005KT 4000 BR SCT009 TEMPO 2606/2612 00000KT 0400 BCFG BKN003 BECMG 2615/2617 22008KT CAVOK=

Estación: SCTB
METAR SCTB 252000Z 00000KT 9999 BKN060 12/06 Q1026=

TAF AMD SCTB 251715Z 2518/2524 24005KT 9999 SCT050 BKN080 TX12/2518Z TN09/2512Z BECMG 2520/2522 SCT020=

Estación: SCEL
METAR SCEL 252000Z VRB02KT 9999 SCT025 13/06 Q1025 NOSIG=

TAF COR SCEL 251749Z 2518/2618 19005KT 9999 FEW015 SCT030 BKN055 TX12 /2518Z TN02/2610Z TEMPO 2520/2524 VRB02KT 8000 FEW030 BECMG 2600/2602 VRB02KT 6000 NSC TEMPO 2610/2614 15005KT 0400 BCFG SCT003 BECMG 2616 /2618 19008KT CAVOK=

Estación: SCSN
METAR SCSN 252000Z 24008KT 9999 FEW040 13/06 Q1027=

TAF AMD SCSN 251546Z 2516/2524 VRB02KT 6000 SCT040 TX13/2517Z TN11/ 2512Z BECMG 2517/2519 9999 BECMG 2519/2521 24005KT CAVOK=

Estación: SCRG
METAR SCRG 251900Z 01005KT 9999 BKN030 13/08 Q1024=

TAF AMD SCRG 251319Z 2514/2524 01005KT 9999 SHRA BKN020 OVC050 TX11/ 2518Z TN09/2512Z TEMPO 2514/2517 34005KT 2500 RA SCT012 OVC030 BECMG 2517/2519 VRB02KT 8000 SCT030 BECMG 2520/2522 21005KT FEW020=

Estación: SCIC
METAR SCIC 252000Z 17006KT 9999 BKN015 BKN100 11/09 Q1026=

TAF AMD SCIC 251426Z 2515/2524 18005KT 7000 SCT020 OVC050 TX11/2518Z TN09/2512Z TEMPO 2515/2517 34005KT 4000 SHRA BKN010 OVC040 BECMG 2518/2520 18005KT 9999 SCT030=

Estación: SCCH
METAR SCCH 252000Z 02003KT 9999 -SHRA BKN035 BKN050 11/05 Q1026=

TAF AMD SCCH 251321Z 2514/2524 32005KT 9999 BKN020 OVC040 TX12/2518Z TN09/2512Z TEMPO 2514/2516 03005KT 7000 -SHRA SCT010 BKN020 BECMG 2517/2519 24005KT SCT025 BECMG 2520/2522 19005KT CAVOK=

Estación: SCIE
METAR SCIE 252000Z 25007KT 220V300 9999 FEW040 13/04 Q1026=

TAF COR SCIE 251628Z 2518/2618 22010KT 9999 BKN045 TX12/2518Z TN04/ 2610Z BECMG 2523/2601 14005KT SCT022 TEMPO 2608/2612 20005KT 3000 BR NSC BECMG 2616/2618 14005KT SCT015=

Estación: SCGE
METAR SCGE 252000Z 30004KT 5000 -SHRA BKN018 11/10 Q1026=

TAF AMD SCGE 251651Z 2517/2524 36005KT 9999 BKN030 TX12/2518Z TN09/ 2512Z BECMG 2519/2521 SCT030=


Volver